Time;durP1;ratioP1;P1;durP2;ratioP2;P2;SDS_P1;SDS_P2;PMS_P1;PMS_P2;Temp;Humidity;BMP_temperature;BMP_pressure;BME280_temperature;BME280_humidity;BME280_pressure;Samples;Min_cycle;Max_cycle;Signal;HPM_P1;HPM_P2
2022/12/03 00:00:13;;;;;;;;;39.75;32.00;;;;;-147.17;100.00;-15917.19;5033924;28;52289;-59
2022/12/03 00:02:39;;;;;;;;;41.75;40.00;;;;;-147.17;100.00;-15917.19;5028604;28;51037;-58
2022/12/03 00:05:05;;;;;;;;;45.25;37.75;;;;;-147.17;100.00;-15917.19;5034292;28;50974;-54
2022/12/03 00:07:30;;;;;;;;;38.75;32.75;;;;;-147.17;100.00;-15917.19;5033429;28;52644;-59
2022/12/03 00:09:55;;;;;;;;;43.25;35.50;;;;;-147.17;100.00;-15917.19;5034546;28;52905;-57
2022/12/03 00:12:21;;;;;;;;;36.25;33.25;;;;;-147.17;100.00;-15917.19;5036040;28;50852;-59
2022/12/03 00:14:46;;;;;;;;;46.25;39.75;;;;;-147.17;100.00;-15917.19;5034527;28;50910;-59
2022/12/03 00:17:11;;;;;;;;;31.50;25.25;;;;;-147.17;100.00;-15917.19;5030639;28;51227;-58
2022/12/03 00:19:37;;;;;;;;;39.50;33.25;;;;;-147.17;100.00;-15917.19;5032244;28;51222;-59
2022/12/03 00:22:02;;;;;;;;;42.50;39.00;;;;;-147.17;100.00;-15917.19;5027785;28;51234;-58
2022/12/03 00:24:27;;;;;;;;;40.00;32.25;;;;;-147.17;100.00;-15917.19;5031441;28;51193;-57
2022/12/03 00:26:53;;;;;;;;;39.75;34.25;;;;;-147.17;100.00;-15917.19;5034566;28;51341;-58
2022/12/03 00:29:18;;;;;;;;;43.75;35.50;;;;;-147.17;100.00;-15917.19;5020033;28;51781;-58
2022/12/03 00:31:44;;;;;;;;;44.25;37.50;;;;;-147.17;100.00;-15917.19;5016626;28;51167;-58
2022/12/03 00:34:10;;;;;;;;;41.75;36.50;;;;;-147.17;100.00;-15917.19;5033197;28;51028;-57
2022/12/03 00:36:35;;;;;;;;;44.00;37.75;;;;;-147.17;100.00;-15917.19;5034256;28;50970;-58
2022/12/03 00:39:00;;;;;;;;;39.75;35.00;;;;;-147.17;100.00;-15917.19;5031571;28;51163;-58
2022/12/03 00:41:26;;;;;;;;;36.25;28.25;;;;;-147.17;100.00;-15917.19;5034726;28;51079;-59
2022/12/03 00:43:56;;;;;;;;;41.50;36.50;;;;;-147.17;100.00;-15917.19;5034528;28;51137;-58
2022/12/03 00:46:21;;;;;;;;;37.00;34.25;;;;;-147.17;100.00;-15917.19;5021488;28;51374;-58
2022/12/03 00:48:46;;;;;;;;;31.50;25.50;;;;;-147.17;100.00;-15917.19;5032989;28;51745;-60
2022/12/03 00:51:12;;;;;;;;;34.50;31.00;;;;;-147.17;100.00;-15917.19;5031222;28;51064;-58
2022/12/03 00:53:37;;;;;;;;;39.25;36.00;;;;;-147.17;100.00;-15917.19;5033820;28;51172;-58
2022/12/03 00:56:03;;;;;;;;;38.25;35.75;;;;;-147.17;100.00;-15917.19;5034446;28;51293;-58
2022/12/03 00:58:28;;;;;;;;;40.00;35.00;;;;;-147.17;100.00;-15917.19;5029937;28;51287;-58
2022/12/03 01:00:53;;;;;;;;;38.50;35.00;;;;;-147.17;100.00;-15917.19;5034107;28;51062;-58
2022/12/03 01:03:19;;;;;;;;;40.75;33.25;;;;;-147.17;100.00;-15917.19;5034129;28;51460;-58
2022/12/03 01:05:44;;;;;;;;;38.75;33.50;;;;;-147.17;100.00;-15917.19;5031493;28;51128;-58
2022/12/03 01:08:10;;;;;;;;;41.75;35.75;;;;;-147.17;100.00;-15917.19;5026241;28;52455;-58
2022/12/03 01:10:35;;;;;;;;;35.75;31.75;;;;;-147.17;100.00;-15917.19;5035015;28;51098;-58
2022/12/03 01:13:01;;;;;;;;;38.25;34.00;;;;;-147.17;100.00;-15917.19;5033972;28;51254;-58
2022/12/03 01:15:26;;;;;;;;;40.75;36.75;;;;;-147.17;100.00;-15917.19;5030387;28;51281;-60
2022/12/03 01:17:53;;;;;;;;;31.50;26.25;;;;;-147.17;100.00;-15917.19;5030749;28;51103;-58
2022/12/03 01:20:19;;;;;;;;;35.75;30.75;;;;;-147.17;100.00;-15917.19;5032461;28;51126;-59
2022/12/03 01:22:44;;;;;;;;;37.00;34.50;;;;;-147.17;100.00;-15917.19;5024067;28;50925;-59
2022/12/03 01:25:09;;;;;;;;;39.50;37.25;;;;;-147.17;100.00;-15917.19;5034795;28;51383;-58
2022/12/03 01:27:35;;;;;;;;;41.00;36.25;;;;;-147.17;100.00;-15917.19;5032244;28;51178;-57
2022/12/03 01:30:00;;;;;;;;;34.50;32.50;;;;;-147.17;100.00;-15917.19;5032769;28;50936;-57
2022/12/03 01:32:26;;;;;;;;;38.75;36.75;;;;;-147.17;100.00;-15917.19;5031821;28;51183;-58
2022/12/03 01:34:53;;;;;;;;;37.25;31.50;;;;;-147.17;100.00;-15917.19;5033720;28;51317;-58
2022/12/03 01:37:21;;;;;;;;;45.00;39.75;;;;;-147.17;100.00;-15917.19;5032142;28;52990;-57
2022/12/03 01:39:46;;;;;;;;;31.75;24.00;;;;;-147.17;100.00;-15917.19;5032163;28;51165;-58
2022/12/03 01:42:20;;;;;;;;;42.00;36.25;;;;;-147.17;100.00;-15917.19;5032989;28;51592;-58
2022/12/03 01:44:47;;;;;;;;;40.75;35.00;;;;;-147.17;100.00;-15917.19;5033282;28;51121;-59
2022/12/03 01:47:15;;;;;;;;;41.00;35.75;;;;;-147.17;100.00;-15917.19;5032562;28;52047;-58
2022/12/03 01:49:46;;;;;;;;;40.00;36.75;;;;;-147.17;100.00;-15917.19;5024524;28;51167;-58
2022/12/03 01:52:14;;;;;;;;;39.00;36.25;;;;;-147.17;100.00;-15917.19;5032339;28;51129;-58
2022/12/03 01:55:01;;;;;;;;;40.50;35.75;;;;;-147.17;100.00;-15917.19;5019263;28;51218;-57
2022/12/03 01:57:38;;;;;;;;;42.50;34.75;;;;;-147.17;100.00;-15917.19;5028680;28;51278;-58
2022/12/03 02:00:06;;;;;;;;;37.75;31.50;;;;;-147.17;100.00;-15917.19;5031665;28;51195;-58
2022/12/03 02:02:31;;;;;;;;;41.00;35.00;;;;;-147.17;100.00;-15917.19;5032905;28;50995;-58
2022/12/03 02:04:58;;;;;;;;;40.50;34.25;;;;;-147.17;100.00;-15917.19;5031963;28;51354;-60
2022/12/03 02:07:25;;;;;;;;;33.00;29.50;;;;;-147.17;100.00;-15917.19;5031570;28;51695;-59
2022/12/03 02:09:51;;;;;;;;;47.50;41.00;;;;;-147.17;100.00;-15917.19;5029425;28;50917;-59
2022/12/03 02:12:21;;;;;;;;;37.50;35.00;;;;;-147.17;100.00;-15917.19;5032790;28;51318;-59
2022/12/03 02:14:46;;;;;;;;;47.50;38.25;;;;;-147.17;100.00;-15917.19;5029102;28;51388;-59
2022/12/03 02:17:12;;;;;;;;;43.25;39.75;;;;;-147.17;100.00;-15917.19;5010134;28;52491;-59
2022/12/03 02:19:38;;;;;;;;;39.50;33.25;;;;;-147.17;100.00;-15917.19;5018744;28;50983;-58
2022/12/03 02:22:22;;;;;;;;;38.75;37.25;;;;;-147.17;100.00;-15917.19;5029010;28;51350;-58
2022/12/03 02:25:10;;;;;;;;;39.50;36.75;;;;;-147.17;100.00;-15917.19;5037815;28;51268;-57
2022/12/03 02:27:36;;;;;;;;;46.00;40.00;;;;;-147.17;100.00;-15917.19;5030531;28;52074;-58
2022/12/03 02:30:02;;;;;;;;;47.75;39.00;;;;;-147.17;100.00;-15917.19;5031365;28;51011;-59
2022/12/03 02:32:27;;;;;;;;;37.25;33.75;;;;;-147.17;100.00;-15917.19;5033380;28;51056;-58
2022/12/03 02:34:53;;;;;;;;;43.00;40.50;;;;;-147.17;100.00;-15917.19;5032020;28;50937;-58
2022/12/03 02:37:26;;;;;;;;;45.25;38.25;;;;;-147.17;100.00;-15917.19;5026562;28;51727;-58
2022/12/03 02:39:55;;;;;;;;;42.00;35.50;;;;;-147.17;100.00;-15917.19;5033092;28;51147;-58
2022/12/03 02:42:36;;;;;;;;;45.00;39.75;;;;;-147.17;100.00;-15917.19;5029259;28;51180;-59
2022/12/03 02:45:07;;;;;;;;;41.25;36.75;;;;;-147.17;100.00;-15917.19;5030529;28;51092;-57
2022/12/03 02:47:44;;;;;;;;;39.00;34.00;;;;;-147.17;100.00;-15917.19;5022596;28;53746;-59
2022/12/03 02:50:12;;;;;;;;;49.75;37.50;;;;;-147.17;100.00;-15917.19;5028153;28;51168;-58
2022/12/03 02:52:39;;;;;;;;;45.50;37.25;;;;;-147.17;100.00;-15917.19;5022319;28;51194;-58
2022/12/03 02:55:06;;;;;;;;;50.50;43.25;;;;;-147.17;100.00;-15917.19;5029996;28;51215;-58
2022/12/03 02:57:33;;;;;;;;;55.25;43.00;;;;;-147.17;100.00;-15917.19;5029938;28;52658;-58
2022/12/03 02:59:59;;;;;;;;;48.75;40.25;;;;;-147.17;100.00;-15917.19;5033056;28;51114;-58
2022/12/03 03:02:27;;;;;;;;;48.75;41.50;;;;;-147.17;100.00;-15917.19;5030877;28;52872;-58
2022/12/03 03:04:54;;;;;;;;;45.50;37.75;;;;;-147.17;100.00;-15917.19;5031000;28;51237;-58
2022/12/03 03:07:20;;;;;;;;;48.50;43.50;;;;;-147.17;100.00;-15917.19;5027720;28;52199;-58
2022/12/03 03:09:45;;;;;;;;;47.75;39.25;;;;;-147.17;100.00;-15917.19;5032144;28;51031;-59
2022/12/03 03:12:11;;;;;;;;;50.25;42.25;;;;;-147.17;100.00;-15917.19;5031850;28;51246;-58
2022/12/03 03:14:36;;;;;;;;;48.75;38.00;;;;;-147.17;100.00;-15917.19;5031073;28;52710;-58
2022/12/03 03:17:03;;;;;;;;;46.50;40.75;;;;;-147.17;100.00;-15917.19;5028265;28;53015;-58
2022/12/03 03:19:29;;;;;;;;;50.50;40.50;;;;;-147.17;100.00;-15917.19;5033255;28;51005;-59
2022/12/03 03:21:54;;;;;;;;;47.00;41.25;;;;;-147.17;100.00;-15917.19;5030606;28;51161;-58
2022/12/03 03:24:21;;;;;;;;;41.75;36.75;;;;;-147.17;100.00;-15917.19;5024349;28;52715;-57
2022/12/03 03:26:48;;;;;;;;;49.25;41.75;;;;;-147.17;100.00;-15917.19;5030905;28;52473;-58
2022/12/03 03:29:14;;;;;;;;;41.50;37.50;;;;;-147.17;100.00;-15917.19;5024101;28;51074;-58
2022/12/03 03:31:41;;;;;;;;;36.75;33.50;;;;;-147.17;100.00;-15917.19;5023926;28;51111;-58
2022/12/03 03:34:07;;;;;;;;;43.00;37.00;;;;;-147.17;100.00;-15917.19;5024394;28;51021;-59
2022/12/03 03:36:33;;;;;;;;;43.00;37.25;;;;;-147.17;100.00;-15917.19;5012527;28;52277;-59
2022/12/03 03:38:59;;;;;;;;;42.50;33.00;;;;;-147.17;100.00;-15917.19;5025555;28;51105;-58
2022/12/03 03:41:26;;;;;;;;;29.00;25.25;;;;;-147.17;100.00;-15917.19;5031728;28;50998;-59
2022/12/03 03:43:52;;;;;;;;;39.75;36.00;;;;;-147.17;100.00;-15917.19;5031476;28;51222;-58
2022/12/03 03:46:18;;;;;;;;;32.00;28.00;;;;;-147.17;100.00;-15917.19;5026566;28;51171;-59
2022/12/03 03:48:47;;;;;;;;;44.25;40.50;;;;;-147.17;100.00;-15917.19;5030479;28;51110;-57
2022/12/03 03:51:14;;;;;;;;;44.75;40.00;;;;;-147.17;100.00;-15917.19;5031882;28;51000;-58
2022/12/03 03:53:43;;;;;;;;;41.50;34.50;;;;;-147.17;100.00;-15917.19;5031489;28;51294;-59
2022/12/03 03:56:09;;;;;;;;;45.75;40.50;;;;;-147.17;100.00;-15917.19;5023500;28;51719;-58
2022/12/03 03:58:35;;;;;;;;;40.00;37.50;;;;;-147.17;100.00;-15917.19;5030437;28;51033;-61
2022/12/03 04:01:00;;;;;;;;;39.00;35.00;;;;;-147.17;100.00;-15917.19;5031167;28;51171;-59
2022/12/03 04:03:27;;;;;;;;;33.25;28.75;;;;;-147.17;100.00;-15917.19;5028125;28;51146;-59
2022/12/03 04:05:53;;;;;;;;;41.25;37.50;;;;;-147.17;100.00;-15917.19;5019538;28;50974;-60
2022/12/03 04:08:18;;;;;;;;;35.00;32.50;;;;;-147.17;100.00;-15917.19;5013751;28;50971;-58
2022/12/03 04:13:42;;;;;;;;;41.00;36.75;;;;;-147.17;100.00;-15917.19;5008704;28;51266;-58
2022/12/03 04:16:08;;;;;;;;;52.75;37.50;;;;;-147.17;100.00;-15917.19;5029192;28;54908;-60
2022/12/03 04:18:42;;;;;;;;;48.75;42.50;;;;;-147.17;100.00;-15917.19;5030929;28;51249;-58
2022/12/03 04:23:53;;;;;;;;;52.25;40.75;;;;;-147.17;100.00;-15917.19;5023691;28;51051;-60
2022/12/03 04:29:02;;;;;;;;;42.75;36.00;;;;;-147.17;100.00;-15917.19;5028573;28;51214;-58
2022/12/03 04:36:56;;;;;;;;;41.00;33.00;;;;;-147.17;100.00;-15917.19;5028717;28;51432;-59
2022/12/03 04:39:21;;;;;;;;;43.50;40.25;;;;;-147.17;100.00;-15917.19;5034057;28;51015;-59
2022/12/03 04:41:46;;;;;;;;;40.00;35.25;;;;;-147.17;100.00;-15917.19;5035396;28;51591;-59
2022/12/03 04:46:56;;;;;;;;;39.00;34.25;;;;;-147.17;100.00;-15917.19;5034133;28;51705;-58
2022/12/03 04:49:21;;;;;;;;;32.50;29.75;;;;;-147.17;100.00;-15917.19;5033340;28;51131;-59
2022/12/03 04:51:47;;;;;;;;;37.00;31.50;;;;;-147.17;100.00;-15917.19;5028525;28;51186;-59
2022/12/03 04:54:12;;;;;;;;;38.50;36.25;;;;;-147.17;100.00;-15917.19;5034116;28;51360;-62
2022/12/03 04:56:38;;;;;;;;;36.25;32.50;;;;;-147.17;100.00;-15917.19;5032192;28;51648;-58
2022/12/03 04:59:03;;;;;;;;;34.00;28.00;;;;;-147.17;100.00;-15917.19;5026471;28;51163;-60
2022/12/03 05:01:28;;;;;;;;;45.75;38.25;;;;;-147.17;100.00;-15917.19;5032513;28;51138;-59
2022/12/03 05:03:54;;;;;;;;;32.25;29.75;;;;;-147.17;100.00;-15917.19;5029730;28;51421;-59
2022/12/03 05:06:20;;;;;;;;;36.75;34.00;;;;;-147.17;100.00;-15917.19;5025322;28;50973;-59
2022/12/03 05:08:45;;;;;;;;;39.25;36.75;;;;;-147.17;100.00;-15917.19;5032700;28;51060;-60
2022/12/03 05:11:10;;;;;;;;;35.50;29.75;;;;;-147.17;100.00;-15917.19;5034257;28;51111;-59
2022/12/03 05:13:35;;;;;;;;;40.50;33.25;;;;;-147.17;100.00;-15917.19;5034440;28;51151;-59
2022/12/03 05:16:01;;;;;;;;;42.25;38.75;;;;;-147.17;100.00;-15917.19;5028730;28;51932;-58
2022/12/03 05:18:26;;;;;;;;;34.75;25.25;;;;;-147.17;100.00;-15917.19;5021263;28;51048;-58
2022/12/03 05:20:51;;;;;;;;;38.00;33.25;;;;;-147.17;100.00;-15917.19;5033748;28;51023;-58
2022/12/03 05:23:17;;;;;;;;;32.25;28.75;;;;;-147.17;100.00;-15917.19;5033168;28;51160;-59
2022/12/03 05:25:42;;;;;;;;;38.00;31.25;;;;;-147.17;100.00;-15917.19;5020140;28;52352;-58
2022/12/03 05:28:08;;;;;;;;;27.50;25.50;;;;;-147.17;100.00;-15917.19;5033488;28;51086;-58
2022/12/03 05:30:33;;;;;;;;;36.25;34.00;;;;;-147.17;100.00;-15917.19;5032252;28;51208;-59
2022/12/03 05:32:59;;;;;;;;;41.00;35.50;;;;;-147.17;100.00;-15917.19;5029289;28;50835;-58
2022/12/03 05:35:24;;;;;;;;;35.00;30.75;;;;;-147.17;100.00;-15917.19;5016304;28;52566;-57
2022/12/03 05:37:50;;;;;;;;;38.50;31.75;;;;;-147.17;100.00;-15917.19;5031281;28;50997;-58
2022/12/03 05:40:15;;;;;;;;;32.25;26.50;;;;;-147.17;100.00;-15917.19;5029574;28;51157;-58
2022/12/03 05:42:53;;;;;;;;;28.75;28.75;;;;;-147.17;100.00;-15917.19;5034507;28;50937;-59
2022/12/03 05:45:38;;;;;;;;;35.00;31.25;;;;;-147.17;100.00;-15917.19;5032831;28;51056;-58
2022/12/03 05:48:07;;;;;;;;;36.75;35.50;;;;;-147.17;100.00;-15917.19;5033135;28;51106;-59
2022/12/03 05:50:35;;;;;;;;;39.50;32.25;;;;;-147.17;100.00;-15917.19;5029380;28;51001;-58
2022/12/03 05:53:01;;;;;;;;;17.75;15.00;;;;;-147.17;100.00;-15917.19;5024810;28;51333;-59
2022/12/03 05:55:26;;;;;;;;;24.50;17.00;;;;;-147.17;100.00;-15917.19;5033578;28;51590;-58
2022/12/03 05:57:52;;;;;;;;;34.75;31.25;;;;;-147.17;100.00;-15917.19;5032079;28;51208;-58
2022/12/03 06:00:20;;;;;;;;;39.50;35.75;;;;;-147.17;100.00;-15917.19;5030271;28;51110;-58
2022/12/03 06:02:45;;;;;;;;;36.75;32.00;;;;;-147.17;100.00;-15917.19;5021247;28;51194;-59
2022/12/03 06:05:12;;;;;;;;;35.25;31.50;;;;;-147.17;100.00;-15917.19;5013958;28;51797;-59
2022/12/03 06:07:38;;;;;;;;;38.75;32.50;;;;;-147.17;100.00;-15917.19;5017185;28;51178;-59
2022/12/03 06:10:05;;;;;;;;;31.50;30.25;;;;;-147.17;100.00;-15917.19;5025663;28;51177;-59
2022/12/03 06:12:30;;;;;;;;;41.75;36.00;;;;;-147.17;100.00;-15917.19;5033753;28;51364;-60
2022/12/03 06:14:55;;;;;;;;;21.50;20.50;;;;;-147.17;100.00;-15917.19;5033809;28;50988;-59
2022/12/03 06:17:21;;;;;;;;;44.25;37.50;;;;;-147.17;100.00;-15917.19;5033326;28;50949;-58
2022/12/03 06:19:46;;;;;;;;;32.50;28.75;;;;;-147.17;100.00;-15917.19;5031521;28;51075;-60
2022/12/03 06:22:12;;;;;;;;;28.50;25.50;;;;;-147.17;100.00;-15917.19;5031659;28;51154;-58
2022/12/03 06:24:37;;;;;;;;;31.25;27.50;;;;;-147.17;100.00;-15917.19;5030687;28;51513;-59
2022/12/03 06:27:02;;;;;;;;;39.00;30.25;;;;;-147.17;100.00;-15917.19;5021103;28;51134;-58
2022/12/03 06:29:27;;;;;;;;;33.75;31.25;;;;;-147.17;100.00;-15917.19;5030898;28;51168;-59
2022/12/03 06:31:53;;;;;;;;;32.25;29.75;;;;;-147.17;100.00;-15917.19;5021957;28;51706;-58
2022/12/03 06:34:18;;;;;;;;;31.00;28.75;;;;;-147.17;100.00;-15917.19;5019022;28;54680;-59
2022/12/03 06:36:45;;;;;;;;;31.00;30.75;;;;;-147.17;100.00;-15917.19;5032576;28;51166;-59
2022/12/03 06:39:11;;;;;;;;;35.50;31.00;;;;;-147.17;100.00;-15917.19;5031459;28;51262;-59
2022/12/03 06:41:36;;;;;;;;;32.25;30.75;;;;;-147.17;100.00;-15917.19;5031953;28;51272;-58
2022/12/03 06:44:02;;;;;;;;;32.25;31.25;;;;;-147.17;100.00;-15917.19;5033058;28;52071;-59
2022/12/03 06:46:27;;;;;;;;;29.25;25.00;;;;;-147.17;100.00;-15917.19;5030625;28;51041;-59
2022/12/03 06:48:53;;;;;;;;;32.50;30.00;;;;;-147.17;100.00;-15917.19;5021762;28;51017;-60
2022/12/03 06:51:18;;;;;;;;;36.50;29.25;;;;;-147.17;100.00;-15917.19;5031240;28;51108;-58
2022/12/03 06:53:43;;;;;;;;;37.00;30.75;;;;;-147.17;100.00;-15917.19;5030733;28;51256;-59
2022/12/03 06:56:09;;;;;;;;;41.75;38.25;;;;;-147.17;100.00;-15917.19;5030155;28;51103;-59
2022/12/03 06:58:37;;;;;;;;;33.00;31.50;;;;;-147.17;100.00;-15917.19;5029034;28;51154;-58
2022/12/03 07:01:03;;;;;;;;;33.00;29.75;;;;;-147.17;100.00;-15917.19;5031795;28;51208;-59
2022/12/03 07:03:28;;;;;;;;;29.75;25.75;;;;;-147.17;100.00;-15917.19;5008568;28;51980;-59
2022/12/03 07:05:54;;;;;;;;;30.50;26.75;;;;;-147.17;100.00;-15917.19;5019270;28;51195;-59
2022/12/03 07:08:19;;;;;;;;;27.50;24.50;;;;;-147.17;100.00;-15917.19;5025473;28;51109;-59
2022/12/03 07:10:45;;;;;;;;;35.25;30.50;;;;;-147.17;100.00;-15917.19;5021703;28;51000;-59
2022/12/03 07:13:10;;;;;;;;;33.25;30.50;;;;;-147.17;100.00;-15917.19;5015296;28;51262;-58
2022/12/03 07:15:36;;;;;;;;;35.25;30.75;;;;;-147.17;100.00;-15917.19;5032221;28;51194;-59
2022/12/03 07:18:01;;;;;;;;;37.75;27.25;;;;;-147.17;100.00;-15917.19;5025822;28;51221;-59
2022/12/03 07:20:26;;;;;;;;;31.25;27.00;;;;;-147.17;100.00;-15917.19;5026773;28;51256;-59
2022/12/03 07:22:52;;;;;;;;;32.25;26.50;;;;;-147.17;100.00;-15917.19;5025399;28;51097;-60
2022/12/03 07:25:17;;;;;;;;;30.50;28.00;;;;;-147.17;100.00;-15917.19;5023926;28;51080;-59
2022/12/03 07:27:42;;;;;;;;;33.75;27.50;;;;;-147.17;100.00;-15917.19;5020924;28;51044;-59
2022/12/03 07:30:10;;;;;;;;;28.00;26.75;;;;;-147.17;100.00;-15917.19;5026484;28;51173;-60
2022/12/03 07:32:35;;;;;;;;;37.00;29.00;;;;;-147.17;100.00;-15917.19;5024242;28;52245;-60
2022/12/03 07:35:01;;;;;;;;;29.25;26.50;;;;;-147.17;100.00;-15917.19;5028582;28;50997;-60
2022/12/03 07:37:27;;;;;;;;;28.50;27.00;;;;;-147.17;100.00;-15917.19;5031430;28;51303;-59
2022/12/03 07:39:53;;;;;;;;;28.50;26.75;;;;;-147.17;100.00;-15917.19;5027760;28;51111;-58
2022/12/03 07:42:19;;;;;;;;;33.25;29.50;;;;;-147.17;100.00;-15917.19;5013782;28;51087;-59
2022/12/03 07:44:44;;;;;;;;;32.00;28.75;;;;;-147.17;100.00;-15917.19;5017353;28;51163;-64
2022/12/03 07:47:09;;;;;;;;;28.25;25.25;;;;;-147.17;100.00;-15917.19;5029944;28;51149;-59
2022/12/03 07:49:35;;;;;;;;;24.50;23.50;;;;;-147.17;100.00;-15917.19;5032222;28;51105;-60
2022/12/03 07:52:00;;;;;;;;;35.75;32.00;;;;;-147.17;100.00;-15917.19;5028632;28;51886;-59
2022/12/03 07:54:26;;;;;;;;;13.25;9.25;;;;;-147.17;100.00;-15917.19;5023048;28;50950;-60
2022/12/03 07:56:51;;;;;;;;;29.25;25.50;;;;;-147.17;100.00;-15917.19;5021067;28;51101;-61
2022/12/03 07:59:17;;;;;;;;;24.50;24.00;;;;;-147.17;100.00;-15917.19;5026248;28;51592;-59
2022/12/03 08:01:43;;;;;;;;;28.25;27.00;;;;;-147.17;100.00;-15917.19;5016089;28;51806;-59
2022/12/03 08:04:10;;;;;;;;;25.25;21.75;;;;;-147.17;100.00;-15917.19;5027222;28;51010;-60
2022/12/03 08:06:35;;;;;;;;;27.50;24.50;;;;;-147.17;100.00;-15917.19;5025079;28;51069;-59
2022/12/03 08:09:00;;;;;;;;;23.75;20.25;;;;;-147.17;100.00;-15917.19;5029388;28;50863;-61
2022/12/03 08:11:28;;;;;;;;;31.50;27.50;;;;;-147.17;100.00;-15917.19;5025685;28;60456;-58
2022/12/03 08:13:54;;;;;;;;;15.50;14.25;;;;;-147.17;100.00;-15917.19;5031688;28;51213;-61
2022/12/03 08:16:21;;;;;;;;;27.25;24.00;;;;;-147.17;100.00;-15917.19;5032927;28;51205;-60
2022/12/03 08:18:48;;;;;;;;;28.00;25.00;;;;;-147.17;100.00;-15917.19;5032801;28;51206;-60
2022/12/03 08:21:16;;;;;;;;;21.75;21.75;;;;;-147.17;100.00;-15917.19;5032332;28;51147;-60
2022/12/03 08:23:42;;;;;;;;;28.00;25.00;;;;;-147.17;100.00;-15917.19;5032198;28;52046;-60
2022/12/03 08:26:24;;;;;;;;;23.00;17.75;;;;;-147.17;100.00;-15917.19;5028821;28;51171;-61
2022/12/03 08:28:51;;;;;;;;;29.25;27.00;;;;;-147.17;100.00;-15917.19;5033513;28;51114;-58
2022/12/03 08:31:24;;;;;;;;;25.00;23.00;;;;;-147.17;100.00;-15917.19;5033695;28;52087;-59
2022/12/03 08:34:00;;;;;;;;;23.50;23.25;;;;;-147.17;100.00;-15917.19;5027124;28;51264;-61
2022/12/03 08:36:29;;;;;;;;;28.25;23.75;;;;;-147.17;100.00;-15917.19;5025011;28;51234;-60
2022/12/03 08:39:00;;;;;;;;;17.00;16.00;;;;;-147.17;100.00;-15917.19;5030086;28;51204;-61
2022/12/03 08:44:29;;;;;;;;;27.75;24.00;;;;;-147.17;100.00;-15917.19;5021450;28;50974;-60
2022/12/03 08:47:19;;;;;;;;;21.75;20.00;;;;;-147.17;100.00;-15917.19;5015511;28;50959;-59
2022/12/03 08:49:58;;;;;;;;;21.25;20.00;;;;;-147.17;100.00;-15917.19;5022530;28;51247;-61
2022/12/03 08:52:31;;;;;;;;;20.75;20.75;;;;;-147.17;100.00;-15917.19;5030132;28;52749;-61
2022/12/03 08:54:57;;;;;;;;;21.75;20.75;;;;;-147.17;100.00;-15917.19;5023914;28;51238;-60
2022/12/03 08:57:26;;;;;;;;;23.75;18.50;;;;;-147.17;100.00;-15917.19;5033658;28;51099;-61
2022/12/03 08:59:59;;;;;;;;;23.75;23.00;;;;;-147.17;100.00;-15917.19;5029550;28;51122;-60
2022/12/03 09:02:33;;;;;;;;;27.00;21.75;;;;;-147.17;100.00;-15917.19;5031005;28;53835;-60
2022/12/03 09:05:13;;;;;;;;;26.00;22.50;;;;;-147.17;100.00;-15917.19;5032248;28;50918;-61
2022/12/03 09:07:38;;;;;;;;;25.00;21.25;;;;;-147.17;100.00;-15917.19;5014001;28;51018;-61
2022/12/03 09:10:04;;;;;;;;;21.50;20.25;;;;;-147.17;100.00;-15917.19;5014637;28;51008;-60
2022/12/03 09:12:29;;;;;;;;;22.25;20.00;;;;;-147.17;100.00;-15917.19;5014573;28;51978;-60
2022/12/03 09:14:55;;;;;;;;;19.75;16.00;;;;;-147.17;100.00;-15917.19;5022726;28;51116;-60
2022/12/03 09:17:20;;;;;;;;;25.75;23.75;;;;;-147.17;100.00;-15917.19;5028655;28;51167;-61
2022/12/03 09:19:45;;;;;;;;;28.00;26.50;;;;;-147.17;100.00;-15917.19;5033433;28;51258;-59
2022/12/03 09:22:11;;;;;;;;;25.75;24.00;;;;;-147.17;100.00;-15917.19;5033549;28;52468;-61
2022/12/03 09:24:36;;;;;;;;;23.00;20.75;;;;;-147.17;100.00;-15917.19;5031224;28;51186;-61
2022/12/03 09:27:01;;;;;;;;;25.50;24.25;;;;;-147.17;100.00;-15917.19;5024388;28;54502;-60
2022/12/03 09:29:26;;;;;;;;;26.50;24.25;;;;;-147.17;100.00;-15917.19;5014701;28;51379;-59
2022/12/03 09:31:52;;;;;;;;;22.25;20.00;;;;;-147.17;100.00;-15917.19;5017560;28;52706;-59
2022/12/03 09:34:18;;;;;;;;;25.25;24.25;;;;;-147.17;100.00;-15917.19;5034538;28;51241;-61
2022/12/03 09:36:43;;;;;;;;;30.00;24.50;;;;;-147.17;100.00;-15917.19;5022910;28;51126;-60
2022/12/03 09:39:08;;;;;;;;;22.00;20.00;;;;;-147.17;100.00;-15917.19;5034529;28;51083;-60
2022/12/03 09:41:34;;;;;;;;;25.00;21.50;;;;;-147.17;100.00;-15917.19;5034605;28;50958;-61
2022/12/03 09:44:01;;;;;;;;;25.00;23.75;;;;;-147.17;100.00;-15917.19;5032361;28;50871;-60
2022/12/03 09:46:27;;;;;;;;;21.25;18.50;;;;;-147.17;100.00;-15917.19;5031521;28;51131;-61
2022/12/03 09:48:54;;;;;;;;;23.25;23.00;;;;;-147.17;100.00;-15917.19;5033763;28;51112;-60
2022/12/03 09:51:19;;;;;;;;;21.50;21.50;;;;;-147.17;100.00;-15917.19;5033161;28;52867;-61
2022/12/03 09:53:46;;;;;;;;;23.75;21.50;;;;;-147.17;100.00;-15917.19;5022551;28;51100;-60
2022/12/03 09:56:19;;;;;;;;;23.75;22.25;;;;;-147.17;100.00;-15917.19;5033116;28;51151;-61
2022/12/03 09:58:45;;;;;;;;;25.00;23.00;;;;;-147.17;100.00;-15917.19;5033636;28;51037;-60
2022/12/03 10:01:13;;;;;;;;;19.75;16.75;;;;;-147.17;100.00;-15917.19;5023494;28;52609;-58
2022/12/03 10:03:44;;;;;;;;;25.50;21.25;;;;;-147.17;100.00;-15917.19;5024272;28;51141;-60
2022/12/03 10:06:15;;;;;;;;;23.25;21.25;;;;;-147.17;100.00;-15917.19;5027904;28;51099;-59
2022/12/03 10:08:41;;;;;;;;;24.75;21.75;;;;;-147.17;100.00;-15917.19;5031475;28;50889;-60
2022/12/03 10:11:06;;;;;;;;;23.00;20.00;;;;;-147.17;100.00;-15917.19;5027502;28;51762;-59
2022/12/03 10:13:33;;;;;;;;;26.25;23.25;;;;;-147.17;100.00;-15917.19;5016045;28;50989;-61
2022/12/03 10:16:00;;;;;;;;;25.50;24.25;;;;;-147.17;100.00;-15917.19;5017243;28;51180;-59
2022/12/03 10:18:32;;;;;;;;;17.00;17.00;;;;;-147.17;100.00;-15917.19;5019368;28;51218;-59
2022/12/03 10:20:58;;;;;;;;;23.50;20.50;;;;;-147.17;100.00;-15917.19;5018353;28;52320;-60
2022/12/03 10:23:28;;;;;;;;;21.25;18.75;;;;;-147.17;100.00;-15917.19;5032402;28;51255;-59
2022/12/03 10:26:01;;;;;;;;;28.25;25.75;;;;;-147.17;100.00;-15917.19;5027838;28;50897;-59
2022/12/03 10:28:34;;;;;;;;;22.00;21.25;;;;;-147.17;100.00;-15917.19;5026492;28;51151;-59
2022/12/03 10:31:03;;;;;;;;;29.75;29.50;;;;;-147.17;100.00;-15917.19;5019171;28;51273;-59
2022/12/03 10:33:32;;;;;;;;;22.75;22.75;;;;;-147.17;100.00;-15917.19;5017292;28;51242;-59
2022/12/03 10:36:15;;;;;;;;;25.00;22.00;;;;;-147.17;100.00;-15917.19;5027521;28;51140;-60
2022/12/03 10:38:40;;;;;;;;;26.00;22.50;;;;;-147.17;100.00;-15917.19;5031527;28;51121;-59
2022/12/03 10:41:27;;;;;;;;;24.75;22.75;;;;;-147.17;100.00;-15917.19;5026356;28;51896;-60
2022/12/03 10:43:52;;;;;;;;;25.25;24.00;;;;;-147.17;100.00;-15917.19;5025857;28;51119;-61
2022/12/03 10:46:21;;;;;;;;;17.75;17.75;;;;;-147.17;100.00;-15917.19;5030318;28;51227;-60
2022/12/03 10:49:10;;;;;;;;;21.25;20.50;;;;;-147.17;100.00;-15917.19;5029971;28;52214;-60
2022/12/03 10:51:37;;;;;;;;;22.25;19.50;;;;;-147.17;100.00;-15917.19;5024873;28;52659;-60
2022/12/03 10:54:02;;;;;;;;;22.25;20.25;;;;;-147.17;100.00;-15917.19;5030373;28;51160;-59
2022/12/03 10:56:29;;;;;;;;;23.00;21.25;;;;;-147.17;100.00;-15917.19;5021766;28;51151;-59
2022/12/03 10:58:55;;;;;;;;;23.75;23.75;;;;;-147.17;100.00;-15917.19;5029488;28;51388;-57
2022/12/03 11:01:22;;;;;;;;;16.50;15.50;;;;;-147.17;100.00;-15917.19;5023242;28;51925;-58
2022/12/03 11:03:48;;;;;;;;;23.75;20.25;;;;;-147.17;100.00;-15917.19;5029516;28;51179;-56
2022/12/03 11:06:17;;;;;;;;;32.75;27.50;;;;;-147.17;100.00;-15917.19;5027672;28;51179;-56